createdAt,value
2016-10-20T00:00:32.413Z,34.04
2016-10-20T00:01:32.442Z,34.13
2016-10-20T00:02:32.475Z,34.23
2016-10-20T00:03:32.117Z,34.33
2016-10-20T00:04:32.439Z,34.52
2016-10-20T00:05:32.131Z,34.23
2016-10-20T00:06:32.138Z,34.13
2016-10-20T00:07:32.144Z,34.33
2016-10-20T00:08:32.513Z,33.94
2016-10-20T00:09:32.158Z,33.94
2016-10-20T00:10:32.525Z,33.84
2016-10-20T00:11:32.483Z,34.13
2016-10-20T00:12:32.492Z,34.52
2016-10-20T00:13:32.496Z,33.94
2016-10-20T00:14:32.191Z,33.94
2016-10-20T00:15:32.511Z,34.33
2016-10-20T00:16:32.519Z,34.23
2016-10-20T00:17:32.523Z,34.42
2016-10-20T00:18:32.535Z,34.71
2016-10-20T00:19:32.589Z,34.71
2016-10-20T00:20:32.233Z,34.23
2016-10-20T00:21:32.551Z,34.52
2016-10-20T00:22:32.246Z,34.23
2016-10-20T00:23:32.615Z,34.13
2016-10-20T00:24:32.259Z,34.42
2016-10-20T00:25:32.577Z,34.52
2016-10-20T00:26:32.935Z,34.33
2016-10-20T00:27:32.595Z,34.13
2016-10-20T00:28:32.599Z,34.62
2016-10-20T00:29:32.296Z,34.52
2016-10-20T00:30:32.302Z,34.91
2016-10-20T00:31:32.622Z,34.62
2016-10-20T00:32:32.314Z,34.52
2016-10-20T00:33:32.324Z,34.62
2016-10-20T00:34:32.331Z,34.71
2016-10-20T00:35:32.651Z,34.81
2016-10-20T00:36:32.343Z,34.62
2016-10-20T00:37:32.713Z,34.81
2016-10-20T00:38:32.357Z,34.62
2016-10-20T00:39:32.679Z,34.91
2016-10-20T00:40:32.371Z,35
2016-10-20T00:41:32.377Z,35.2
2016-10-20T00:42:32.745Z,35
2016-10-20T00:43:32.397Z,34.62
2016-10-20T00:44:32.710Z,34.62
2016-10-20T00:45:32.717Z,34.62
2016-10-20T00:46:32.721Z,34.42
2016-10-20T00:47:32.421Z,34.71
2016-10-20T00:48:32.740Z,34.52
2016-10-20T00:49:32.432Z,34.81
2016-10-20T00:50:32.799Z,34.62
2016-10-20T00:51:32.759Z,34.04
2016-10-20T00:52:32.503Z,34.33
2016-10-20T00:53:32.773Z,34.04
2016-10-20T00:54:32.516Z,34.42
2016-10-20T00:55:32.787Z,34.04
2016-10-20T00:56:32.528Z,34.42
2016-10-20T00:57:32.488Z,34.33
2016-10-20T00:58:32.856Z,34.23
2016-10-20T00:59:32.822Z,34.62
2016-10-20T01:00:32.820Z,34.71
2016-10-20T01:01:32.830Z,34.62
2016-10-20T01:02:32.572Z,34.42
2016-10-20T01:03:32.530Z,34.62
2016-10-20T01:04:32.848Z,34.71
2016-10-20T01:05:32.543Z,34.81
2016-10-20T01:06:32.863Z,34.62
2016-10-20T01:07:32.555Z,34.81
2016-10-20T01:08:32.879Z,34.13
2016-10-20T01:09:32.882Z,34.04
2016-10-20T01:10:32.578Z,34.23
2016-10-20T01:11:32.582Z,34.62
2016-10-20T01:12:32.590Z,34.62
2016-10-20T01:13:32.912Z,34.42
2016-10-20T01:14:32.917Z,34.42
2016-10-20T01:15:32.611Z,34.52
2016-10-20T01:16:32.618Z,34.62
2016-10-20T01:17:32.938Z,34.71
2016-10-20T01:18:32.632Z,34.33
2016-10-20T01:19:32.953Z,34.23
2016-10-20T01:20:33.005Z,34.33
2016-10-20T01:21:32.967Z,34.13
2016-10-20T01:22:32.663Z,34.13
2016-10-20T01:23:32.981Z,34.33
2016-10-20T01:24:32.986Z,34.13
2016-10-20T01:25:32.993Z,34.23
2016-10-20T01:26:33.000Z,34.13
2016-10-20T01:27:33.012Z,34.04
2016-10-20T01:28:33.016Z,34.23
2016-10-20T01:29:33.056Z,34.04
2016-10-20T01:30:33.023Z,33.94
2016-10-20T01:31:32.718Z,33.75
2016-10-20T01:32:33.038Z,34.04
2016-10-20T01:33:32.733Z,33.94
2016-10-20T01:34:33.103Z,33.84
2016-10-20T01:35:32.747Z,33.75
2016-10-20T01:36:32.753Z,33.75
2016-10-20T01:37:32.761Z,33.75
2016-10-20T01:38:32.767Z,34.13
2016-10-20T01:39:33.087Z,33.94
2016-10-20T01:40:33.032Z,34.04
2016-10-20T01:41:33.101Z,34.04
2016-10-20T01:42:33.111Z,33.75
2016-10-20T01:43:33.115Z,33.75
2016-10-20T01:44:33.132Z,33.94
2016-10-20T01:45:32.819Z,34.33
2016-10-20T01:46:32.872Z,33.75
2016-10-20T01:47:33.141Z,33.65
2016-10-20T01:48:33.149Z,34.04
2016-10-20T01:49:33.157Z,34.23
2016-10-20T01:50:33.162Z,34.13
2016-10-20T01:51:33.219Z,34.04
2016-10-20T01:52:33.176Z,33.65
2016-10-20T01:53:32.929Z,34.04
2016-10-20T01:54:32.877Z,33.75
2016-10-20T01:55:33.196Z,33.94
2016-10-20T01:56:32.888Z,33.75
2016-10-20T01:57:33.249Z,33.84
2016-10-20T01:58:32.953Z,33.84
2016-10-20T01:59:32.911Z,33.65
2016-10-20T02:00:32.914Z,33.55
2016-10-20T02:01:32.925Z,33.84
2016-10-20T02:02:33.242Z,34.13
2016-10-20T02:03:32.938Z,33.65
2016-10-20T02:04:32.995Z,33.94
2016-10-20T02:05:33.260Z,33.84
2016-10-20T02:06:33.320Z,34.13
2016-10-20T02:07:33.324Z,33.65
2016-10-20T02:08:32.967Z,33.75
2016-10-20T02:09:33.327Z,33.65
2016-10-20T02:10:33.022Z,33.94
2016-10-20T02:11:33.301Z,33.75
2016-10-20T02:12:32.995Z,33.75
2016-10-20T02:13:33.037Z,33.65
2016-10-20T02:14:33.421Z,33.65
2016-10-20T02:15:33.330Z,34.04
2016-10-20T02:16:33.024Z,33.75
2016-10-20T02:17:33.031Z,34.13
2016-10-20T02:18:33.040Z,34.04
2016-10-20T02:19:33.042Z,33.94
2016-10-20T02:20:33.052Z,33.65
2016-10-20T02:21:33.060Z,33.65
2016-10-20T02:22:33.113Z,33.75
2016-10-20T02:23:33.387Z,34.13
2016-10-20T02:24:33.491Z,33.75
2016-10-20T02:25:33.398Z,33.75
2016-10-20T02:26:33.405Z,33.75
2016-10-20T02:27:33.099Z,33.84
2016-10-20T02:28:33.468Z,33.75
2016-10-20T02:29:33.189Z,33.84
2016-10-20T02:30:33.120Z,33.84
2016-10-20T02:31:33.125Z,33.84
2016-10-20T02:32:33.135Z,33.94
2016-10-20T02:33:33.139Z,33.55
2016-10-20T02:34:33.508Z,34.33
2016-10-20T02:35:33.516Z,33.84
2016-10-20T02:36:33.473Z,33.94
2016-10-20T02:37:33.491Z,33.94
2016-10-20T02:38:33.485Z,33.94
2016-10-20T02:39:33.232Z,33.75
2016-10-20T02:40:33.188Z,33.94
2016-10-20T02:41:33.506Z,33.55
2016-10-20T02:42:33.514Z,33.94
2016-10-20T02:43:33.212Z,33.65
2016-10-20T02:44:33.525Z,33.75
2016-10-20T02:45:33.221Z,33.75
2016-10-20T02:46:33.592Z,33.94
2016-10-20T02:47:33.234Z,33.75
2016-10-20T02:48:33.241Z,33.65
2016-10-20T02:49:33.286Z,33.26
2016-10-20T02:50:33.258Z,34.04
2016-10-20T02:51:33.311Z,33.94
2016-10-20T02:52:33.271Z,33.84
2016-10-20T02:53:33.591Z,34.04
2016-10-20T02:54:33.334Z,33.55
2016-10-20T02:55:33.293Z,33.84
2016-10-20T02:56:33.298Z,33.84
2016-10-20T02:57:33.667Z,33.84
2016-10-20T02:58:33.626Z,33.94
2016-10-20T02:59:33.633Z,33.84
2016-10-20T03:00:33.686Z,33.84
2016-10-20T03:01:33.645Z,33.84
2016-10-20T03:02:33.339Z,33.94
2016-10-20T03:03:33.706Z,33.94
2016-10-20T03:04:33.666Z,33.55
2016-10-20T03:05:33.674Z,33.45
2016-10-20T03:06:33.682Z,33.55
2016-10-20T03:07:33.371Z,33.45
2016-10-20T03:08:33.380Z,33.45
2016-10-20T03:09:33.386Z,33.55
2016-10-20T03:10:33.395Z,33.36
2016-10-20T03:11:33.723Z,32.87
2016-10-20T03:12:33.719Z,33.36
2016-10-20T03:13:33.727Z,33.17
2016-10-20T03:14:33.419Z,32.97
2016-10-20T03:15:33.740Z,33.07
2016-10-20T03:16:33.430Z,33.36
2016-10-20T03:17:33.444Z,33.45
2016-10-20T03:18:33.446Z,33.65
2016-10-20T03:19:33.766Z,33.26
2016-10-20T03:20:33.771Z,33.45
2016-10-20T03:21:33.468Z,33.55
2016-10-20T03:22:33.791Z,33.65
2016-10-20T03:23:33.791Z,33.45
2016-10-20T03:24:33.801Z,33.07
2016-10-20T03:25:33.805Z,33.07
2016-10-20T03:26:33.498Z,33.65
2016-10-20T03:27:33.869Z,33.45
2016-10-20T03:28:33.924Z,33.55
2016-10-20T03:29:33.831Z,33.36
2016-10-20T03:30:33.888Z,33.26
2016-10-20T03:31:33.848Z,33.45
2016-10-20T03:32:33.852Z,33.55
2016-10-20T03:33:33.861Z,33.65
2016-10-20T03:34:33.917Z,33.65
2016-10-20T03:35:33.869Z,33.26
2016-10-20T03:36:33.604Z,33.26
2016-10-20T03:37:33.884Z,33.36
2016-10-20T03:38:33.891Z,33.55
2016-10-20T03:39:33.900Z,33.45
2016-10-20T03:40:33.632Z,33.45
2016-10-20T03:41:33.954Z,33.36
2016-10-20T03:42:33.606Z,33.55
2016-10-20T03:43:33.926Z,33.65
2016-10-20T03:44:33.622Z,33.55
2016-10-20T03:45:33.626Z,33.36
2016-10-20T03:46:33.999Z,33.45
2016-10-20T03:47:33.951Z,33.65
2016-10-20T03:48:33.850Z,33.55
2016-10-20T03:49:33.658Z,33.75
2016-10-20T03:50:33.973Z,33.55
2016-10-20T03:51:33.669Z,33.55
2016-10-20T03:52:34.039Z,33.36
2016-10-20T03:53:34.041Z,33.45
2016-10-20T03:54:34.001Z,33.26
2016-10-20T03:55:34.007Z,33.55
2016-10-20T03:56:34.052Z,33.45
2016-10-20T03:57:33.707Z,33.65
2016-10-20T03:58:34.078Z,33.26
2016-10-20T03:59:33.723Z,33.55
2016-10-20T04:00:34.091Z,33.55
2016-10-20T04:01:34.051Z,33.65
2016-10-20T04:02:34.059Z,33.45
2016-10-20T04:03:33.799Z,33.65
2016-10-20T04:04:33.756Z,33.55
2016-10-20T04:05:34.074Z,33.55
2016-10-20T04:06:34.084Z,33.26
2016-10-20T04:07:33.779Z,33.65
2016-10-20T04:08:33.829Z,33.17
2016-10-20T04:09:34.104Z,33.55
2016-10-20T04:10:34.161Z,33.55
2016-10-20T04:11:34.118Z,34.04
2016-10-20T04:12:34.165Z,33.94
2016-10-20T04:13:34.234Z,34.04
2016-10-20T04:14:34.139Z,33.75
2016-10-20T04:15:33.881Z,33.36
2016-10-20T04:16:33.841Z,33.26
2016-10-20T04:17:34.171Z,33.26
2016-10-20T04:18:34.217Z,33.55
2016-10-20T04:19:34.172Z,33.55
2016-10-20T04:20:33.866Z,33.55
2016-10-20T04:21:34.235Z,33.65
2016-10-20T04:22:34.191Z,33.26
2016-10-20T04:23:34.196Z,33.36
2016-10-20T04:24:33.892Z,33.55
2016-10-20T04:25:33.899Z,33.45
2016-10-20T04:26:34.220Z,33.26
2016-10-20T04:27:33.911Z,33.17
2016-10-20T04:28:34.231Z,33.07
2016-10-20T04:29:34.248Z,33.36
2016-10-20T04:30:33.981Z,33.26
2016-10-20T04:31:34.255Z,33.55
2016-10-20T04:32:34.259Z,33.17
2016-10-20T04:33:34.002Z,33.26
2016-10-20T04:34:34.269Z,33.65
2016-10-20T04:35:33.969Z,33.65
2016-10-20T04:36:34.283Z,33.17
2016-10-20T04:37:34.031Z,33.45
2016-10-20T04:38:34.301Z,33.36
2016-10-20T04:39:34.357Z,33.36
2016-10-20T04:40:34.311Z,33.17
2016-10-20T04:41:34.372Z,32.97
2016-10-20T04:42:34.325Z,33.17
2016-10-20T04:43:34.057Z,32.78
2016-10-20T04:44:34.341Z,33.07
2016-10-20T04:45:34.345Z,33.07
2016-10-20T04:46:34.402Z,32.87
2016-10-20T04:47:34.359Z,33.25
2016-10-20T04:48:34.364Z,33.07
2016-10-20T04:49:34.060Z,33.17
2016-10-20T04:50:34.376Z,33.25
2016-10-20T04:51:34.383Z,33.36
2016-10-20T04:52:34.078Z,33.17
2016-10-20T04:53:34.398Z,33.36
2016-10-20T04:54:34.405Z,33.45
2016-10-20T04:55:34.411Z,33.17
2016-10-20T04:56:34.107Z,32.97
2016-10-20T04:57:34.424Z,32.97
2016-10-20T04:58:34.170Z,33.07
2016-10-20T04:59:34.125Z,33.26
2016-10-20T05:00:34.131Z,33.17
2016-10-20T05:01:34.503Z,33.07
2016-10-20T05:02:34.456Z,33.07
2016-10-20T05:03:34.200Z,33.07
2016-10-20T05:04:34.471Z,33.26
2016-10-20T05:05:34.165Z,33.17
2016-10-20T05:06:34.488Z,33.36
2016-10-20T05:07:34.542Z,33.26
2016-10-20T05:08:34.187Z,33.26
2016-10-20T05:09:34.241Z,32.97
2016-10-20T05:10:34.661Z,32.78
2016-10-20T05:11:34.205Z,33.07
2016-10-20T05:12:34.525Z,33.26
2016-10-20T05:13:34.589Z,33.17
2016-10-20T05:14:34.224Z,33.26
2016-10-20T05:15:34.243Z,33.17
2016-10-20T05:16:34.552Z,33.17
2016-10-20T05:17:34.609Z,32.97
2016-10-20T05:18:34.253Z,32.87
2016-10-20T05:19:34.261Z,33.26
2016-10-20T05:20:34.579Z,32.97
2016-10-20T05:21:34.587Z,33.17
2016-10-20T05:22:34.643Z,32.78
2016-10-20T05:23:34.602Z,33.17
2016-10-20T05:24:34.607Z,33.36
2016-10-20T05:25:34.301Z,32.97
2016-10-20T05:26:34.310Z,32.97
2016-10-20T05:27:34.629Z,33.07
2016-10-20T05:28:34.371Z,33.07
2016-10-20T05:29:34.323Z,32.87
2016-10-20T05:30:34.334Z,32.78
2016-10-20T05:31:34.657Z,32.97
2016-10-20T05:32:34.662Z,32.97
2016-10-20T05:33:34.403Z,32.87
2016-10-20T05:34:34.677Z,32.87
2016-10-20T05:35:34.365Z,32.97
2016-10-20T05:36:34.698Z,33.07
2016-10-20T05:37:34.381Z,33.36
2016-10-20T05:38:34.751Z,33.07
2016-10-20T05:39:34.394Z,32.97
2016-10-20T05:40:34.713Z,33.17
2016-10-20T05:41:34.408Z,33.07
2016-10-20T05:42:34.728Z,33.26
2016-10-20T05:43:34.472Z,33.36
2016-10-20T05:44:34.431Z,33.17
2016-10-20T05:45:34.436Z,33.26
2016-10-20T05:46:34.814Z,33.36
2016-10-20T05:47:34.860Z,33.36
2016-10-20T05:48:34.771Z,33.07
2016-10-20T05:49:34.464Z,33.26
2016-10-20T05:50:34.468Z,33.36
2016-10-20T05:51:34.477Z,33.17
2016-10-20T05:52:34.533Z,33.36
2016-10-20T05:53:34.802Z,33.36
2016-10-20T05:54:34.494Z,32.96
2016-10-20T05:55:34.819Z,33.05
2016-10-20T05:56:34.558Z,33.44
2016-10-20T05:57:34.828Z,33.15
2016-10-20T05:58:34.609Z,33.25
2016-10-20T05:59:34.531Z,33.34
2016-10-20T06:00:34.587Z,33.07
2016-10-20T06:01:34.855Z,32.97
2016-10-20T06:02:34.548Z,33.36
2016-10-20T06:03:34.917Z,33.25
2016-10-20T06:04:34.614Z,33.15
2016-10-20T06:05:34.877Z,33.15
2016-10-20T06:06:34.887Z,32.96
2016-10-20T06:07:34.583Z,33.25
2016-10-20T06:08:34.594Z,33.36
2016-10-20T06:09:34.910Z,32.96
2016-10-20T06:10:34.914Z,33.36
2016-10-20T06:11:34.611Z,33.36
2016-10-20T06:12:34.613Z,32.78
2016-10-20T06:13:34.623Z,33.07
2016-10-20T06:14:34.728Z,33.26
2016-10-20T06:15:34.951Z,33.26
2016-10-20T06:16:35.259Z,33.45
2016-10-20T06:17:34.961Z,33.17
2016-10-20T06:18:34.655Z,33.07
2016-10-20T06:19:35.027Z,33.26
2016-10-20T06:20:34.720Z,33.17
2016-10-20T06:21:35.039Z,33.07
2016-10-20T06:22:34.683Z,33.17
2016-10-20T06:23:35.002Z,33.25
2016-10-20T06:24:34.697Z,33.26
2016-10-20T06:25:35.014Z,33.07
2016-10-20T06:26:35.022Z,33.26
2016-10-20T06:27:35.030Z,33.26
2016-10-20T06:28:35.086Z,33.17
2016-10-20T06:29:35.041Z,32.97
2016-10-20T06:30:35.048Z,33.07
2016-10-20T06:31:35.054Z,33.36
2016-10-20T06:32:35.113Z,32.97
2016-10-20T06:33:35.069Z,33.26
2016-10-20T06:34:35.074Z,33.26
2016-10-20T06:35:35.084Z,33.07
2016-10-20T06:36:34.777Z,32.97
2016-10-20T06:37:34.831Z,33.36
2016-10-20T06:38:34.792Z,33.07
2016-10-20T06:39:34.847Z,33.07
2016-10-20T06:40:34.812Z,33.17
2016-10-20T06:41:35.122Z,33.36
2016-10-20T06:42:35.179Z,33.07
2016-10-20T06:43:35.138Z,32.97
2016-10-20T06:44:34.829Z,33.07
2016-10-20T06:45:34.837Z,32.97
2016-10-20T06:46:35.370Z,33.26
2016-10-20T06:47:34.863Z,33.17
2016-10-20T06:48:35.219Z,32.97
2016-10-20T06:49:34.864Z,33.07
2016-10-20T06:50:34.874Z,33.07
2016-10-20T06:51:35.240Z,33.07
2016-10-20T06:52:34.883Z,32.97
2016-10-20T06:53:35.201Z,33.07
2016-10-20T06:54:34.897Z,33.26
2016-10-20T06:55:35.218Z,33.17
2016-10-20T06:56:34.911Z,33.17
2016-10-20T06:57:34.967Z,33.17
2016-10-20T06:58:34.974Z,33.26
2016-10-20T06:59:35.331Z,33.07
2016-10-20T07:00:34.936Z,33.07
2016-10-20T07:01:35.255Z,33.07
2016-10-20T07:02:34.951Z,33.45
2016-10-20T07:03:34.957Z,33.26
2016-10-20T07:04:35.013Z,33.07
2016-10-20T07:05:35.286Z,33.26
2016-10-20T07:06:35.366Z,33.07
2016-10-20T07:07:34.982Z,33.17
2016-10-20T07:08:35.041Z,33.17
2016-10-20T07:09:35.000Z,32.87
2016-10-20T07:10:35.318Z,33.26
2016-10-20T07:11:35.322Z,33.36
2016-10-20T07:12:35.331Z,33.26
2016-10-20T07:13:35.336Z,33.07
2016-10-20T07:14:35.382Z,33.36
2016-10-20T07:15:35.402Z,33.07
2016-10-20T07:16:35.357Z,33.55
2016-10-20T07:17:35.422Z,33.44
2016-10-20T07:18:35.370Z,33.65
2016-10-20T07:19:35.425Z,33.54
2016-10-20T07:20:35.382Z,33.63
2016-10-20T07:21:35.391Z,33.83
2016-10-20T07:22:35.445Z,33.73
2016-10-20T07:23:35.403Z,33.73
2016-10-20T07:24:35.147Z,34.12
2016-10-20T07:25:35.415Z,33.92
2016-10-20T07:26:35.110Z,34.02
2016-10-20T07:27:35.215Z,34.31
2016-10-20T07:28:35.436Z,34.12
2016-10-20T07:29:35.445Z,34.52
2016-10-20T07:30:35.437Z,34.21
2016-10-20T07:31:35.454Z,34.31
2016-10-20T07:32:35.149Z,34.6
2016-10-20T07:33:35.153Z,34.41
2016-10-20T07:34:35.161Z,33.83
2016-10-20T07:35:35.482Z,33.65
2016-10-20T07:36:35.487Z,33.07
2016-10-20T07:37:35.493Z,32.7
2016-10-20T07:38:35.600Z,32.33
2016-10-20T07:39:35.195Z,32.14
2016-10-20T07:40:35.205Z,31.86
2016-10-20T07:41:35.522Z,31.47
2016-10-20T07:42:35.215Z,31.28
2016-10-20T07:43:35.535Z,31.1
2016-10-20T07:44:35.282Z,30.42
2016-10-20T07:45:35.235Z,30.15
2016-10-20T07:46:35.296Z,30.34
2016-10-20T07:47:35.301Z,29.85
2016-10-20T07:48:35.259Z,29.58
2016-10-20T07:49:35.577Z,29
2016-10-20T07:50:35.591Z,29.38
2016-10-20T07:51:35.589Z,29.4
2016-10-20T07:52:35.597Z,29.11
2016-10-20T07:53:35.291Z,29.11
2016-10-20T07:54:35.353Z,28.91
2016-10-20T07:55:35.309Z,28.93
2016-10-20T07:56:35.676Z,28.83
2016-10-20T07:57:35.322Z,28.83
2016-10-20T07:58:35.324Z,28.15
2016-10-20T07:59:35.646Z,28.25
2016-10-20T08:00:35.341Z,28.34
2016-10-20T08:01:35.663Z,28.34
2016-10-20T08:02:35.403Z,28.25
2016-10-20T08:03:35.725Z,28.34
2016-10-20T08:04:35.682Z,28.34
2016-10-20T08:05:35.686Z,28.34
2016-10-20T08:06:35.747Z,28.44
2016-10-20T08:07:35.704Z,28.54
2016-10-20T08:08:35.713Z,28.26
2016-10-20T08:09:35.715Z,28.26
2016-10-20T08:10:35.724Z,28.26
2016-10-20T08:11:35.729Z,28.36
2016-10-20T08:12:35.425Z,28.25
2016-10-20T08:13:35.483Z,28.07
2016-10-20T08:14:35.804Z,28.17
2016-10-20T08:15:35.445Z,28.36
2016-10-20T08:16:35.770Z,28.07
2016-10-20T08:17:35.461Z,28.36
2016-10-20T08:18:35.834Z,28.36
2016-10-20T08:19:35.475Z,28.45
2016-10-20T08:20:35.484Z,28.45
2016-10-20T08:21:35.852Z,28.26
2016-10-20T08:22:35.809Z,28.26
2016-10-20T08:23:35.503Z,28.17
2016-10-20T08:24:35.822Z,28.26
2016-10-20T08:25:35.834Z,27.97
2016-10-20T08:26:35.840Z,28.17
2016-10-20T08:27:35.850Z,27.78
2016-10-20T08:28:37.592Z,28.18
2016-10-20T08:29:35.856Z,27.79
2016-10-20T08:30:35.869Z,28.08
2016-10-20T08:31:35.562Z,27.87
2016-10-20T08:32:35.880Z,27.68
2016-10-20T08:33:35.576Z,28.18
2016-10-20T08:34:35.632Z,28.07
2016-10-20T08:35:35.588Z,28.26
2016-10-20T08:36:35.912Z,28.36
2016-10-20T08:37:35.907Z,28.26
2016-10-20T08:38:35.925Z,28.36
2016-10-20T08:39:35.620Z,28.26
2016-10-20T08:40:35.941Z,28.45
2016-10-20T08:41:35.951Z,28.26
2016-10-20T08:42:36.006Z,28.26
2016-10-20T08:43:35.960Z,28.26
2016-10-20T08:44:35.969Z,28.26
2016-10-20T08:45:35.980Z,28.36
2016-10-20T08:46:35.672Z,28.17
2016-10-20T08:47:35.679Z,28.26
2016-10-20T08:48:35.999Z,28.26
2016-10-20T08:49:35.793Z,28.26
2016-10-20T08:50:36.016Z,28.17
2016-10-20T08:51:36.022Z,28.26
2016-10-20T08:52:36.029Z,28.17
2016-10-20T08:53:36.038Z,28.36
2016-10-20T08:54:36.145Z,28.45
2016-10-20T08:55:36.051Z,28.36
2016-10-20T08:56:36.057Z,28.26
2016-10-20T08:57:35.751Z,28.45
2016-10-20T08:58:35.811Z,28.36
2016-10-20T08:59:36.085Z,28.26
2016-10-20T09:00:35.777Z,28.26
2016-10-20T09:01:36.097Z,28.36
2016-10-20T09:02:36.302Z,28.45
2016-10-20T09:03:36.115Z,28.36
2016-10-20T09:04:35.854Z,28.45
2016-10-20T09:05:36.129Z,28.26
2016-10-20T09:06:36.130Z,28.36
2016-10-20T09:07:36.239Z,28.36
2016-10-20T09:08:36.148Z,28.36
2016-10-20T09:09:36.207Z,28.45
2016-10-20T09:10:35.848Z,28.36
2016-10-20T09:11:35.859Z,28.65
2016-10-20T09:12:36.177Z,28.75
2016-10-20T09:13:36.187Z,28.74
2016-10-20T09:14:36.192Z,28.74
2016-10-20T09:15:35.887Z,28.75
2016-10-20T09:16:36.256Z,28.44
2016-10-20T09:17:36.264Z,28.65
2016-10-20T09:18:36.233Z,28.65
2016-10-20T09:19:35.958Z,28.36
2016-10-20T09:20:35.923Z,28.55
2016-10-20T09:21:36.244Z,28.07
2016-10-20T09:22:36.252Z,28.17
2016-10-20T09:23:35.945Z,28.17
2016-10-20T09:24:36.265Z,28.17
2016-10-20T09:25:35.976Z,28.26
2016-10-20T09:26:36.020Z,28.17
2016-10-20T09:27:36.538Z,28.36
2016-10-20T09:28:35.989Z,28.07
2016-10-20T09:29:36.354Z,28.55
2016-10-20T09:30:36.309Z,28.54
2016-10-20T09:31:36.321Z,28.54
2016-10-20T09:32:36.012Z,28.54
2016-10-20T09:33:36.021Z,28.83
2016-10-20T09:34:36.342Z,28.93
2016-10-20T09:35:36.346Z,29.02
2016-10-20T09:36:36.042Z,29.12
2016-10-20T09:37:36.464Z,28.93
2016-10-20T09:38:36.371Z,29.12
2016-10-20T09:39:36.460Z,29.12
2016-10-20T09:40:36.685Z,29.22
2016-10-20T09:41:36.443Z,29.02
2016-10-20T09:42:36.399Z,28.64
2016-10-20T09:43:36.416Z,28.74
2016-10-20T09:44:36.101Z,28.64
2016-10-20T09:45:36.157Z,29.14
2016-10-20T09:46:36.166Z,29.02
2016-10-20T09:47:36.127Z,29.32
2016-10-20T09:48:36.136Z,29.61
2016-10-20T09:49:36.504Z,29.98
2016-10-20T09:50:36.510Z,30.16
2016-10-20T09:51:36.153Z,30.24
2016-10-20T09:52:36.473Z,30.92
2016-10-20T09:53:36.484Z,31.02
2016-10-20T09:54:36.180Z,30.81
2016-10-20T09:55:36.382Z,30.91
2016-10-20T09:56:36.552Z,31.1
2016-10-20T09:57:36.526Z,30.52
2016-10-20T09:58:36.515Z,30.15
2016-10-20T09:59:36.524Z,30.44
2016-10-20T10:00:36.531Z,30.05
2016-10-20T10:01:36.225Z,30.15
2016-10-20T10:02:36.280Z,29.76
2016-10-20T10:03:36.287Z,30.15
2016-10-20T10:04:36.610Z,29.95
2016-10-20T10:05:36.255Z,29.85
2016-10-20T10:06:36.310Z,30.44
2016-10-20T10:07:36.318Z,30.44
2016-10-20T10:08:36.622Z,30.34
2016-10-20T10:09:36.592Z,30.24
2016-10-20T10:10:36.599Z,29.76
2016-10-20T10:11:36.295Z,29.95
2016-10-20T10:12:36.304Z,30.52
2016-10-20T10:13:36.307Z,30.23
2016-10-20T10:14:36.628Z,30.13
2016-10-20T10:15:36.325Z,30.13
2016-10-20T10:16:36.642Z,30.91
2016-10-20T10:17:36.649Z,29.95
2016-10-20T10:18:36.706Z,30.24
2016-10-20T10:19:36.663Z,30.15
2016-10-20T10:20:36.720Z,30.05
2016-10-20T10:21:36.366Z,29.76
2016-10-20T10:22:36.684Z,29.85
2016-10-20T10:23:36.689Z,29.95
2016-10-20T10:24:36.694Z,30.54
2016-10-20T10:25:36.441Z,30.13
2016-10-20T10:26:36.760Z,30.52
2016-10-20T10:27:36.718Z,30.04
2016-10-20T10:28:51.289Z,29.37
2016-10-20T10:29:36.731Z,29.48
2016-10-20T10:30:36.428Z,29.1
2016-10-20T10:31:36.435Z,29.21
2016-10-20T10:32:36.752Z,29.21
2016-10-20T10:33:36.449Z,29.01
2016-10-20T10:34:36.817Z,29.11
2016-10-20T10:35:36.513Z,29.11
2016-10-20T10:36:36.781Z,29.12
2016-10-20T10:37:36.476Z,29.3
2016-10-20T10:38:36.793Z,29.01
2016-10-20T10:39:36.801Z,29.02
2016-10-20T10:40:36.495Z,28.74
2016-10-20T10:41:36.814Z,28.93
2016-10-20T10:42:36.821Z,28.93
2016-10-20T10:43:36.828Z,28.83
2016-10-20T10:44:36.839Z,28.64
2016-10-20T10:45:36.536Z,28.54
2016-10-20T10:46:36.849Z,28.54
2016-10-20T10:47:36.859Z,28.54
2016-10-20T10:48:36.867Z,28.15
2016-10-20T10:49:36.611Z,28.44
2016-10-20T10:50:36.930Z,28.05
2016-10-20T10:51:36.574Z,28.64
2016-10-20T10:52:36.631Z,29.02
2016-10-20T10:53:36.904Z,29.41
2016-10-20T10:54:36.910Z,29.32
2016-10-20T10:55:36.917Z,29.12
2016-10-20T10:56:36.659Z,29.02
2016-10-20T10:57:36.931Z,28.93
2016-10-20T10:58:36.625Z,29.12
2016-10-20T10:59:36.946Z,29.02
2016-10-20T11:00:36.688Z,29.12
2016-10-20T11:01:37.210Z,29.14
2016-10-20T11:02:36.655Z,29.14
2016-10-20T11:03:36.662Z,29.14
2016-10-20T11:04:36.980Z,29.33
2016-10-20T11:05:36.676Z,29.24
2016-10-20T11:06:36.999Z,29.43
2016-10-20T11:07:36.690Z,29.43
2016-10-20T11:08:36.697Z,29.04
2016-10-20T11:09:37.018Z,29.14
2016-10-20T11:10:36.712Z,29.52
2016-10-20T11:11:37.082Z,29.12
2016-10-20T11:12:37.039Z,29.33
2016-10-20T11:13:37.099Z,29.33
2016-10-20T11:14:36.741Z,29.24
2016-10-20T11:15:37.060Z,29.33
2016-10-20T11:16:37.088Z,29.33
2016-10-20T11:17:37.079Z,29.43
2016-10-20T11:18:37.084Z,29.33
2016-10-20T11:19:36.828Z,29.33
2016-10-20T11:20:36.834Z,29.33
2016-10-20T11:21:36.842Z,29.33
2016-10-20T11:22:37.161Z,29.82
2016-10-20T11:23:36.807Z,29.14
2016-10-20T11:24:37.129Z,29.14
2016-10-20T11:25:36.823Z,29.24
2016-10-20T11:26:37.292Z,29.14
2016-10-20T11:27:36.888Z,29.24
2016-10-20T11:28:37.156Z,29.91
2016-10-20T11:29:37.165Z,29.14
2016-10-20T11:30:37.170Z,29.04
2016-10-20T11:31:36.915Z,29.24
2016-10-20T11:32:36.872Z,29.14
2016-10-20T11:33:37.198Z,29.62
2016-10-20T11:34:36.938Z,29.62
2016-10-20T11:35:36.894Z,29.82
2016-10-20T11:36:37.216Z,29.14
2016-10-20T11:37:36.961Z,29.22
2016-10-20T11:38:37.279Z,29.14
2016-10-20T11:39:37.237Z,29.52
2016-10-20T11:40:37.246Z,29.41
2016-10-20T11:41:37.293Z,29.32
2016-10-20T11:42:36.998Z,29.12
2016-10-20T11:43:37.265Z,29.12
2016-10-20T11:44:37.327Z,29.32
2016-10-20T11:45:36.968Z,29.43
2016-10-20T11:46:37.345Z,29.33
2016-10-20T11:47:37.297Z,29.33
2016-10-20T11:48:37.043Z,29.04
2016-10-20T11:49:37.310Z,29.14
2016-10-20T11:50:37.370Z,29.05
2016-10-20T11:51:37.475Z,29.04
2016-10-20T11:52:37.335Z,29.33
2016-10-20T11:53:37.079Z,29.62
2016-10-20T11:54:37.402Z,29.22
2016-10-20T11:55:37.355Z,29.12
2016-10-20T11:56:37.414Z,29.12
2016-10-20T11:57:37.370Z,29.02
2016-10-20T11:58:37.067Z,29.43
2016-10-20T11:59:37.437Z,28.94
2016-10-20T12:00:37.131Z,28.94
2016-10-20T12:01:37.089Z,28.94
2016-10-20T12:02:37.097Z,28.94
2016-10-20T12:03:37.415Z,29.14
2016-10-20T12:04:37.108Z,28.94
2016-10-20T12:05:37.119Z,28.94
2016-10-20T12:06:37.439Z,28.94
2016-10-20T12:07:37.183Z,28.75
2016-10-20T12:08:37.508Z,29.04
2016-10-20T12:09:37.463Z,29.24
2016-10-20T12:10:37.467Z,29.41
2016-10-20T12:11:37.163Z,29.11
2016-10-20T12:12:37.487Z,29.3
2016-10-20T12:13:37.491Z,29.1
2016-10-20T12:14:37.498Z,29.87
2016-10-20T12:15:37.195Z,29.08
2016-10-20T12:16:37.567Z,29.08
2016-10-20T12:17:37.519Z,29.17
2016-10-20T12:18:37.528Z,29.17
2016-10-20T12:19:37.532Z,29.27
2016-10-20T12:20:37.541Z,29.17
2016-10-20T12:21:37.546Z,29.17
2016-10-20T12:22:37.242Z,29.08
2016-10-20T12:23:37.565Z,29.76
2016-10-20T12:24:37.255Z,29.36
2016-10-20T12:25:37.629Z,29.55
2016-10-20T12:26:37.644Z,29.26
2016-10-20T12:27:37.607Z,29.36
2016-10-20T12:28:37.484Z,29.46
2016-10-20T12:29:37.291Z,29.73
2016-10-20T12:30:37.350Z,30.32
2016-10-20T12:31:37.617Z,29.73
2016-10-20T12:32:37.676Z,29.44
2016-10-20T12:33:37.682Z,29.44
2016-10-20T12:34:37.641Z,29.34
2016-10-20T12:35:37.648Z,29.34
2016-10-20T12:36:37.337Z,29.44
2016-10-20T12:37:37.348Z,29.53
2016-10-20T12:38:37.357Z,29.53
2016-10-20T12:39:37.735Z,29.05
2016-10-20T12:40:37.731Z,29.15
2016-10-20T12:41:37.736Z,29.15
2016-10-20T12:42:37.745Z,29.16
2016-10-20T12:43:37.386Z,29.55
2016-10-20T12:44:37.400Z,29.63
2016-10-20T12:45:37.404Z,29.53
2016-10-20T12:46:37.721Z,29.44
2016-10-20T12:47:37.469Z,29.24
2016-10-20T12:48:37.738Z,29.46
2016-10-20T12:49:37.743Z,29.15
2016-10-20T12:50:37.487Z,29.15
2016-10-20T12:51:37.806Z,29.24
2016-10-20T12:52:37.762Z,28.87
2016-10-20T12:53:37.771Z,28.87